sensor_id;sensor_type;location;lat;lon;timestamp;P1;durP1;ratioP1;P2;durP2;ratioP2
15067;SDS011;7633;60.024;18.770;2022-12-07T00:02:06;3.73;;;1.30;;
15067;SDS011;7633;60.024;18.770;2022-12-07T00:04:31;3.47;;;1.20;;
15067;SDS011;7633;60.024;18.770;2022-12-07T00:06:56;2.40;;;1.50;;
15067;SDS011;7633;60.024;18.770;2022-12-07T00:09:22;3.40;;;1.40;;
15067;SDS011;7633;60.024;18.770;2022-12-07T00:11:48;3.53;;;1.10;;
15067;SDS011;7633;60.024;18.770;2022-12-07T00:14:15;2.53;;;1.20;;
15067;SDS011;7633;60.024;18.770;2022-12-07T00:16:41;2.63;;;1.33;;
15067;SDS011;7633;60.024;18.770;2022-12-07T00:19:06;4.27;;;1.27;;
15067;SDS011;7633;60.024;18.770;2022-12-07T00:21:33;2.67;;;1.20;;
15067;SDS011;7633;60.024;18.770;2022-12-07T00:23:59;1.73;;;1.30;;
15067;SDS011;7633;60.024;18.770;2022-12-07T00:26:25;3.10;;;1.00;;
15067;SDS011;7633;60.024;18.770;2022-12-07T00:28:58;2.53;;;0.97;;
15067;SDS011;7633;60.024;18.770;2022-12-07T00:31:25;4.77;;;2.27;;
15067;SDS011;7633;60.024;18.770;2022-12-07T00:33:51;3.17;;;1.60;;
15067;SDS011;7633;60.024;18.770;2022-12-07T00:36:18;7.07;;;1.57;;
15067;SDS011;7633;60.024;18.770;2022-12-07T00:38:44;1.97;;;1.10;;
15067;SDS011;7633;60.024;18.770;2022-12-07T00:41:13;3.47;;;1.60;;
15067;SDS011;7633;60.024;18.770;2022-12-07T00:43:40;3.70;;;0.80;;
15067;SDS011;7633;60.024;18.770;2022-12-07T00:46:06;3.10;;;1.43;;
15067;SDS011;7633;60.024;18.770;2022-12-07T00:48:32;2.43;;;1.13;;
15067;SDS011;7633;60.024;18.770;2022-12-07T00:50:58;1.60;;;1.00;;
15067;SDS011;7633;60.024;18.770;2022-12-07T00:53:24;2.03;;;1.00;;
15067;SDS011;7633;60.024;18.770;2022-12-07T00:55:49;2.23;;;1.17;;
15067;SDS011;7633;60.024;18.770;2022-12-07T00:58:15;1.53;;;1.10;;
15067;SDS011;7633;60.024;18.770;2022-12-07T01:00:41;1.53;;;0.83;;
15067;SDS011;7633;60.024;18.770;2022-12-07T01:03:08;2.67;;;1.17;;
15067;SDS011;7633;60.024;18.770;2022-12-07T01:05:35;4.47;;;1.17;;
15067;SDS011;7633;60.024;18.770;2022-12-07T01:08:00;1.60;;;1.03;;
15067;SDS011;7633;60.024;18.770;2022-12-07T01:10:26;6.23;;;1.60;;
15067;SDS011;7633;60.024;18.770;2022-12-07T01:12:52;2.00;;;1.00;;
15067;SDS011;7633;60.024;18.770;2022-12-07T01:15:17;2.93;;;1.13;;
15067;SDS011;7633;60.024;18.770;2022-12-07T01:17:43;4.80;;;1.20;;
15067;SDS011;7633;60.024;18.770;2022-12-07T01:20:09;3.10;;;1.40;;
15067;SDS011;7633;60.024;18.770;2022-12-07T01:22:38;3.17;;;1.43;;
15067;SDS011;7633;60.024;18.770;2022-12-07T01:25:04;2.10;;;1.10;;
15067;SDS011;7633;60.024;18.770;2022-12-07T01:27:30;3.37;;;1.57;;
15067;SDS011;7633;60.024;18.770;2022-12-07T01:29:55;2.07;;;1.20;;
15067;SDS011;7633;60.024;18.770;2022-12-07T01:32:20;5.20;;;1.93;;
15067;SDS011;7633;60.024;18.770;2022-12-07T01:34:47;3.30;;;1.40;;
15067;SDS011;7633;60.024;18.770;2022-12-07T01:37:13;2.83;;;1.43;;
15067;SDS011;7633;60.024;18.770;2022-12-07T01:39:38;3.43;;;1.53;;
15067;SDS011;7633;60.024;18.770;2022-12-07T01:42:04;3.87;;;1.70;;
15067;SDS011;7633;60.024;18.770;2022-12-07T01:44:29;3.40;;;1.50;;
15067;SDS011;7633;60.024;18.770;2022-12-07T01:46:57;2.70;;;1.10;;
15067;SDS011;7633;60.024;18.770;2022-12-07T01:49:25;3.87;;;1.83;;
15067;SDS011;7633;60.024;18.770;2022-12-07T01:51:52;2.73;;;1.20;;
15067;SDS011;7633;60.024;18.770;2022-12-07T01:54:19;3.13;;;1.73;;
15067;SDS011;7633;60.024;18.770;2022-12-07T01:56:53;2.80;;;1.60;;
15067;SDS011;7633;60.024;18.770;2022-12-07T01:59:19;2.17;;;1.70;;
15067;SDS011;7633;60.024;18.770;2022-12-07T02:01:46;3.67;;;1.47;;
15067;SDS011;7633;60.024;18.770;2022-12-07T02:04:12;3.43;;;1.60;;
15067;SDS011;7633;60.024;18.770;2022-12-07T02:06:37;2.93;;;1.40;;
15067;SDS011;7633;60.024;18.770;2022-12-07T02:09:02;4.70;;;2.00;;
15067;SDS011;7633;60.024;18.770;2022-12-07T02:11:28;3.73;;;1.47;;
15067;SDS011;7633;60.024;18.770;2022-12-07T02:13:53;1.90;;;1.50;;
15067;SDS011;7633;60.024;18.770;2022-12-07T02:16:32;1.87;;;1.33;;
15067;SDS011;7633;60.024;18.770;2022-12-07T02:19:09;1.63;;;1.20;;
15067;SDS011;7633;60.024;18.770;2022-12-07T02:24:35;1.63;;;1.33;;
15067;SDS011;7633;60.024;18.770;2022-12-07T02:29:45;2.57;;;1.67;;
15067;SDS011;7633;60.024;18.770;2022-12-07T02:32:20;3.40;;;1.77;;
15067;SDS011;7633;60.024;18.770;2022-12-07T02:34:54;2.57;;;1.53;;
15067;SDS011;7633;60.024;18.770;2022-12-07T02:37:25;3.10;;;1.50;;
15067;SDS011;7633;60.024;18.770;2022-12-07T02:40:01;3.30;;;1.30;;
15067;SDS011;7633;60.024;18.770;2022-12-07T02:42:30;3.53;;;2.03;;
15067;SDS011;7633;60.024;18.770;2022-12-07T02:44:57;2.80;;;1.60;;
15067;SDS011;7633;60.024;18.770;2022-12-07T02:47:24;3.50;;;1.80;;
15067;SDS011;7633;60.024;18.770;2022-12-07T02:49:50;2.90;;;1.73;;
15067;SDS011;7633;60.024;18.770;2022-12-07T02:52:16;2.37;;;1.50;;
15067;SDS011;7633;60.024;18.770;2022-12-07T02:54:42;3.50;;;1.53;;
15067;SDS011;7633;60.024;18.770;2022-12-07T02:57:14;1.77;;;1.20;;
15067;SDS011;7633;60.024;18.770;2022-12-07T03:15:26;3.27;;;1.33;;
15067;SDS011;7633;60.024;18.770;2022-12-07T03:17:54;2.10;;;1.20;;
15067;SDS011;7633;60.024;18.770;2022-12-07T03:20:21;2.43;;;1.30;;
15067;SDS011;7633;60.024;18.770;2022-12-07T03:22:48;2.57;;;1.27;;
15067;SDS011;7633;60.024;18.770;2022-12-07T03:25:15;3.20;;;1.20;;
15067;SDS011;7633;60.024;18.770;2022-12-07T03:27:47;4.80;;;1.30;;
15067;SDS011;7633;60.024;18.770;2022-12-07T03:30:18;3.93;;;1.40;;
15067;SDS011;7633;60.024;18.770;2022-12-07T03:32:45;2.37;;;1.30;;
15067;SDS011;7633;60.024;18.770;2022-12-07T03:35:25;3.77;;;1.40;;
15067;SDS011;7633;60.024;18.770;2022-12-07T03:37:54;2.83;;;1.07;;
15067;SDS011;7633;60.024;18.770;2022-12-07T03:42:48;3.20;;;1.10;;
15067;SDS011;7633;60.024;18.770;2022-12-07T03:45:14;1.00;;;0.80;;
15067;SDS011;7633;60.024;18.770;2022-12-07T03:47:47;1.53;;;1.00;;
15067;SDS011;7633;60.024;18.770;2022-12-07T03:50:25;1.90;;;1.00;;
15067;SDS011;7633;60.024;18.770;2022-12-07T03:53:11;2.00;;;1.13;;
15067;SDS011;7633;60.024;18.770;2022-12-07T03:55:39;1.90;;;1.27;;
15067;SDS011;7633;60.024;18.770;2022-12-07T03:58:06;2.10;;;1.10;;
15067;SDS011;7633;60.024;18.770;2022-12-07T04:00:33;2.13;;;1.30;;
15067;SDS011;7633;60.024;18.770;2022-12-07T04:02:58;2.63;;;1.20;;
15067;SDS011;7633;60.024;18.770;2022-12-07T04:05:24;1.77;;;1.37;;
15067;SDS011;7633;60.024;18.770;2022-12-07T04:07:49;1.53;;;0.93;;
15067;SDS011;7633;60.024;18.770;2022-12-07T04:10:15;2.77;;;1.23;;
15067;SDS011;7633;60.024;18.770;2022-12-07T04:12:40;1.87;;;1.10;;
15067;SDS011;7633;60.024;18.770;2022-12-07T04:15:06;2.00;;;1.17;;
15067;SDS011;7633;60.024;18.770;2022-12-07T04:17:31;2.73;;;1.30;;
15067;SDS011;7633;60.024;18.770;2022-12-07T04:19:57;2.13;;;1.10;;
15067;SDS011;7633;60.024;18.770;2022-12-07T04:22:22;1.83;;;1.00;;
15067;SDS011;7633;60.024;18.770;2022-12-07T04:24:48;2.27;;;1.17;;
15067;SDS011;7633;60.024;18.770;2022-12-07T04:27:13;1.73;;;0.97;;
15067;SDS011;7633;60.024;18.770;2022-12-07T04:29:39;3.00;;;1.00;;
15067;SDS011;7633;60.024;18.770;2022-12-07T04:32:04;2.97;;;0.93;;
15067;SDS011;7633;60.024;18.770;2022-12-07T04:34:30;1.60;;;1.07;;
15067;SDS011;7633;60.024;18.770;2022-12-07T04:36:55;3.03;;;0.90;;
15067;SDS011;7633;60.024;18.770;2022-12-07T04:39:22;2.97;;;1.40;;
15067;SDS011;7633;60.024;18.770;2022-12-07T04:41:48;0.93;;;0.70;;
15067;SDS011;7633;60.024;18.770;2022-12-07T04:44:14;1.47;;;1.10;;
15067;SDS011;7633;60.024;18.770;2022-12-07T04:46:40;1.57;;;0.90;;
15067;SDS011;7633;60.024;18.770;2022-12-07T04:49:05;2.00;;;1.17;;
15067;SDS011;7633;60.024;18.770;2022-12-07T04:51:31;2.47;;;0.70;;
15067;SDS011;7633;60.024;18.770;2022-12-07T04:53:56;1.10;;;0.60;;
15067;SDS011;7633;60.024;18.770;2022-12-07T04:56:22;1.00;;;0.70;;
15067;SDS011;7633;60.024;18.770;2022-12-07T04:58:48;1.17;;;0.50;;
15067;SDS011;7633;60.024;18.770;2022-12-07T05:01:14;3.10;;;0.93;;
15067;SDS011;7633;60.024;18.770;2022-12-07T05:03:40;2.50;;;1.13;;
15067;SDS011;7633;60.024;18.770;2022-12-07T05:06:06;1.63;;;0.63;;
15067;SDS011;7633;60.024;18.770;2022-12-07T05:08:32;1.60;;;0.80;;
15067;SDS011;7633;60.024;18.770;2022-12-07T05:10:58;1.50;;;1.10;;
15067;SDS011;7633;60.024;18.770;2022-12-07T05:13:23;0.97;;;0.60;;
15067;SDS011;7633;60.024;18.770;2022-12-07T05:15:49;1.37;;;0.83;;
15067;SDS011;7633;60.024;18.770;2022-12-07T05:18:14;2.10;;;1.00;;
15067;SDS011;7633;60.024;18.770;2022-12-07T05:20:40;1.77;;;0.87;;
15067;SDS011;7633;60.024;18.770;2022-12-07T05:23:06;3.00;;;1.00;;
15067;SDS011;7633;60.024;18.770;2022-12-07T05:25:31;1.73;;;0.90;;
15067;SDS011;7633;60.024;18.770;2022-12-07T05:27:57;1.93;;;0.53;;
15067;SDS011;7633;60.024;18.770;2022-12-07T05:30:23;1.87;;;0.70;;
15067;SDS011;7633;60.024;18.770;2022-12-07T05:32:48;2.40;;;1.03;;
15067;SDS011;7633;60.024;18.770;2022-12-07T05:35:14;1.87;;;0.90;;
15067;SDS011;7633;60.024;18.770;2022-12-07T05:37:39;1.50;;;1.03;;
15067;SDS011;7633;60.024;18.770;2022-12-07T05:40:05;0.77;;;0.70;;
15067;SDS011;7633;60.024;18.770;2022-12-07T05:42:31;1.93;;;1.07;;
15067;SDS011;7633;60.024;18.770;2022-12-07T05:44:56;0.80;;;0.67;;
15067;SDS011;7633;60.024;18.770;2022-12-07T05:47:21;2.40;;;1.10;;
15067;SDS011;7633;60.024;18.770;2022-12-07T05:49:47;2.03;;;1.00;;
15067;SDS011;7633;60.024;18.770;2022-12-07T05:52:12;2.33;;;0.83;;
15067;SDS011;7633;60.024;18.770;2022-12-07T05:54:38;4.23;;;1.77;;
15067;SDS011;7633;60.024;18.770;2022-12-07T05:57:03;5.33;;;1.67;;
15067;SDS011;7633;60.024;18.770;2022-12-07T05:59:29;2.37;;;1.50;;
15067;SDS011;7633;60.024;18.770;2022-12-07T06:01:55;3.50;;;1.27;;
15067;SDS011;7633;60.024;18.770;2022-12-07T06:04:21;2.23;;;0.60;;
15067;SDS011;7633;60.024;18.770;2022-12-07T06:06:47;3.90;;;1.10;;
15067;SDS011;7633;60.024;18.770;2022-12-07T06:09:13;3.53;;;0.93;;
15067;SDS011;7633;60.024;18.770;2022-12-07T06:11:39;1.90;;;0.70;;
15067;SDS011;7633;60.024;18.770;2022-12-07T06:14:23;2.00;;;0.90;;
15067;SDS011;7633;60.024;18.770;2022-12-07T06:16:48;1.50;;;0.80;;
15067;SDS011;7633;60.024;18.770;2022-12-07T06:19:14;1.47;;;0.87;;
15067;SDS011;7633;60.024;18.770;2022-12-07T06:21:39;2.33;;;0.70;;
15067;SDS011;7633;60.024;18.770;2022-12-07T06:24:05;1.03;;;0.70;;
15067;SDS011;7633;60.024;18.770;2022-12-07T06:26:30;1.20;;;0.73;;
15067;SDS011;7633;60.024;18.770;2022-12-07T06:28:56;0.60;;;0.60;;
15067;SDS011;7633;60.024;18.770;2022-12-07T06:31:21;3.77;;;1.03;;
15067;SDS011;7633;60.024;18.770;2022-12-07T06:33:47;2.10;;;0.70;;
15067;SDS011;7633;60.024;18.770;2022-12-07T06:36:12;0.73;;;0.60;;
15067;SDS011;7633;60.024;18.770;2022-12-07T06:38:38;0.90;;;0.50;;
15067;SDS011;7633;60.024;18.770;2022-12-07T06:41:04;1.00;;;0.73;;
15067;SDS011;7633;60.024;18.770;2022-12-07T06:43:29;2.00;;;0.73;;
15067;SDS011;7633;60.024;18.770;2022-12-07T06:45:55;2.07;;;0.90;;
15067;SDS011;7633;60.024;18.770;2022-12-07T06:48:20;1.00;;;0.33;;
15067;SDS011;7633;60.024;18.770;2022-12-07T06:50:46;0.47;;;0.47;;
15067;SDS011;7633;60.024;18.770;2022-12-07T06:53:11;1.30;;;0.70;;
15067;SDS011;7633;60.024;18.770;2022-12-07T06:55:37;0.60;;;0.50;;
15067;SDS011;7633;60.024;18.770;2022-12-07T06:58:02;3.70;;;0.90;;
15067;SDS011;7633;60.024;18.770;2022-12-07T07:00:28;1.17;;;0.60;;
15067;SDS011;7633;60.024;18.770;2022-12-07T07:02:53;1.20;;;0.50;;
15067;SDS011;7633;60.024;18.770;2022-12-07T07:05:18;3.97;;;1.00;;
15067;SDS011;7633;60.024;18.770;2022-12-07T07:07:46;1.00;;;0.70;;
15067;SDS011;7633;60.024;18.770;2022-12-07T07:10:13;1.40;;;0.60;;
15067;SDS011;7633;60.024;18.770;2022-12-07T07:12:38;1.73;;;0.50;;
15067;SDS011;7633;60.024;18.770;2022-12-07T07:15:04;0.70;;;0.50;;
15067;SDS011;7633;60.024;18.770;2022-12-07T07:17:29;1.30;;;0.57;;
15067;SDS011;7633;60.024;18.770;2022-12-07T07:19:55;2.30;;;0.60;;
15067;SDS011;7633;60.024;18.770;2022-12-07T07:22:20;3.13;;;0.80;;
15067;SDS011;7633;60.024;18.770;2022-12-07T07:24:45;2.90;;;0.77;;
15067;SDS011;7633;60.024;18.770;2022-12-07T07:27:11;2.57;;;0.80;;
15067;SDS011;7633;60.024;18.770;2022-12-07T07:29:36;0.93;;;0.60;;
15067;SDS011;7633;60.024;18.770;2022-12-07T07:32:01;1.40;;;0.50;;
15067;SDS011;7633;60.024;18.770;2022-12-07T07:34:27;1.97;;;0.40;;
15067;SDS011;7633;60.024;18.770;2022-12-07T07:36:52;0.93;;;0.63;;
15067;SDS011;7633;60.024;18.770;2022-12-07T07:39:18;2.20;;;0.80;;
15067;SDS011;7633;60.024;18.770;2022-12-07T07:41:43;0.90;;;0.53;;
15067;SDS011;7633;60.024;18.770;2022-12-07T07:44:09;1.57;;;0.40;;
15067;SDS011;7633;60.024;18.770;2022-12-07T07:46:34;0.50;;;0.50;;
15067;SDS011;7633;60.024;18.770;2022-12-07T07:49:00;1.97;;;0.70;;
15067;SDS011;7633;60.024;18.770;2022-12-07T07:51:25;1.77;;;0.60;;
15067;SDS011;7633;60.024;18.770;2022-12-07T07:53:50;3.23;;;0.80;;
15067;SDS011;7633;60.024;18.770;2022-12-07T07:56:16;2.13;;;0.50;;
15067;SDS011;7633;60.024;18.770;2022-12-07T07:58:41;1.67;;;0.50;;
15067;SDS011;7633;60.024;18.770;2022-12-07T08:01:07;3.37;;;0.80;;
15067;SDS011;7633;60.024;18.770;2022-12-07T08:03:33;1.47;;;0.53;;
15067;SDS011;7633;60.024;18.770;2022-12-07T08:05:58;0.60;;;0.60;;
15067;SDS011;7633;60.024;18.770;2022-12-07T08:08:23;3.00;;;0.70;;
15067;SDS011;7633;60.024;18.770;2022-12-07T08:10:49;1.53;;;0.43;;
15067;SDS011;7633;60.024;18.770;2022-12-07T08:13:15;1.67;;;0.70;;
15067;SDS011;7633;60.024;18.770;2022-12-07T08:15:42;2.37;;;0.70;;
15067;SDS011;7633;60.024;18.770;2022-12-07T08:18:08;1.03;;;0.50;;
15067;SDS011;7633;60.024;18.770;2022-12-07T08:20:34;3.03;;;0.73;;
15067;SDS011;7633;60.024;18.770;2022-12-07T08:22:59;0.80;;;0.70;;
15067;SDS011;7633;60.024;18.770;2022-12-07T08:25:25;1.73;;;0.37;;
15067;SDS011;7633;60.024;18.770;2022-12-07T08:27:50;2.03;;;0.40;;
15067;SDS011;7633;60.024;18.770;2022-12-07T08:30:16;1.37;;;0.40;;
15067;SDS011;7633;60.024;18.770;2022-12-07T08:32:41;0.60;;;0.60;;
15067;SDS011;7633;60.024;18.770;2022-12-07T08:35:07;0.53;;;0.53;;
15067;SDS011;7633;60.024;18.770;2022-12-07T08:37:33;1.70;;;0.50;;
15067;SDS011;7633;60.024;18.770;2022-12-07T08:39:58;1.57;;;0.60;;
15067;SDS011;7633;60.024;18.770;2022-12-07T08:42:24;0.50;;;0.50;;
15067;SDS011;7633;60.024;18.770;2022-12-07T08:44:54;0.40;;;0.37;;
15067;SDS011;7633;60.024;18.770;2022-12-07T08:47:20;2.03;;;0.50;;
15067;SDS011;7633;60.024;18.770;2022-12-07T08:49:46;1.03;;;0.63;;
15067;SDS011;7633;60.024;18.770;2022-12-07T08:52:12;0.77;;;0.40;;
15067;SDS011;7633;60.024;18.770;2022-12-07T08:54:38;1.43;;;0.57;;
15067;SDS011;7633;60.024;18.770;2022-12-07T08:57:04;1.07;;;0.70;;
15067;SDS011;7633;60.024;18.770;2022-12-07T08:59:30;0.70;;;0.70;;
15067;SDS011;7633;60.024;18.770;2022-12-07T09:01:55;0.57;;;0.50;;
15067;SDS011;7633;60.024;18.770;2022-12-07T09:04:21;1.77;;;0.60;;
15067;SDS011;7633;60.024;18.770;2022-12-07T09:06:46;1.37;;;0.40;;
15067;SDS011;7633;60.024;18.770;2022-12-07T09:09:12;1.83;;;0.90;;
15067;SDS011;7633;60.024;18.770;2022-12-07T09:11:38;1.67;;;0.80;;
15067;SDS011;7633;60.024;18.770;2022-12-07T09:14:04;0.80;;;0.50;;
15067;SDS011;7633;60.024;18.770;2022-12-07T09:16:30;1.50;;;0.70;;
15067;SDS011;7633;60.024;18.770;2022-12-07T09:18:55;1.47;;;0.60;;
15067;SDS011;7633;60.024;18.770;2022-12-07T09:21:21;0.90;;;0.60;;
15067;SDS011;7633;60.024;18.770;2022-12-07T09:23:46;1.13;;;0.60;;
15067;SDS011;7633;60.024;18.770;2022-12-07T09:26:11;1.33;;;0.90;;
15067;SDS011;7633;60.024;18.770;2022-12-07T09:28:37;1.97;;;0.50;;
15067;SDS011;7633;60.024;18.770;2022-12-07T09:31:02;0.77;;;0.53;;
15067;SDS011;7633;60.024;18.770;2022-12-07T09:33:28;0.70;;;0.50;;
15067;SDS011;7633;60.024;18.770;2022-12-07T09:35:53;2.93;;;0.70;;
15067;SDS011;7633;60.024;18.770;2022-12-07T09:38:19;0.53;;;0.53;;
15067;SDS011;7633;60.024;18.770;2022-12-07T09:40:45;0.80;;;0.50;;
15067;SDS011;7633;60.024;18.770;2022-12-07T09:43:14;2.27;;;0.80;;
15067;SDS011;7633;60.024;18.770;2022-12-07T09:45:40;1.40;;;0.83;;
15067;SDS011;7633;60.024;18.770;2022-12-07T09:48:11;1.43;;;0.73;;
15067;SDS011;7633;60.024;18.770;2022-12-07T09:50:39;1.37;;;0.90;;
15067;SDS011;7633;60.024;18.770;2022-12-07T09:53:09;3.67;;;0.77;;
15067;SDS011;7633;60.024;18.770;2022-12-07T09:55:35;2.47;;;0.80;;
15067;SDS011;7633;60.024;18.770;2022-12-07T09:58:01;1.30;;;0.60;;
15067;SDS011;7633;60.024;18.770;2022-12-07T10:00:27;2.30;;;0.70;;
15067;SDS011;7633;60.024;18.770;2022-12-07T10:02:57;2.73;;;0.50;;
15067;SDS011;7633;60.024;18.770;2022-12-07T10:07:51;2.37;;;0.60;;
15067;SDS011;7633;60.024;18.770;2022-12-07T10:10:18;1.00;;;0.73;;
15067;SDS011;7633;60.024;18.770;2022-12-07T10:12:58;0.60;;;0.57;;
15067;SDS011;7633;60.024;18.770;2022-12-07T10:15:39;0.80;;;0.50;;
15067;SDS011;7633;60.024;18.770;2022-12-07T10:18:13;0.70;;;0.50;;
15067;SDS011;7633;60.024;18.770;2022-12-07T10:20:41;1.40;;;0.53;;
15067;SDS011;7633;60.024;18.770;2022-12-07T10:23:12;1.23;;;0.90;;
15067;SDS011;7633;60.024;18.770;2022-12-07T10:25:38;1.37;;;0.77;;
15067;SDS011;7633;60.024;18.770;2022-12-07T10:28:10;0.80;;;0.53;;
15067;SDS011;7633;60.024;18.770;2022-12-07T10:30:51;1.67;;;0.67;;
15067;SDS011;7633;60.024;18.770;2022-12-07T10:33:36;1.67;;;0.63;;
15067;SDS011;7633;60.024;18.770;2022-12-07T10:38:47;1.97;;;0.67;;
15067;SDS011;7633;60.024;18.770;2022-12-07T10:41:13;0.67;;;0.50;;
15067;SDS011;7633;60.024;18.770;2022-12-07T10:43:46;2.30;;;0.90;;
15067;SDS011;7633;60.024;18.770;2022-12-07T10:49:21;1.60;;;0.60;;
15067;SDS011;7633;60.024;18.770;2022-12-07T11:04:43;0.67;;;0.50;;
15067;SDS011;7633;60.024;18.770;2022-12-07T11:12:21;1.93;;;0.57;;
15067;SDS011;7633;60.024;18.770;2022-12-07T11:15:01;1.10;;;0.50;;
15067;SDS011;7633;60.024;18.770;2022-12-07T11:20:20;0.93;;;0.60;;
15067;SDS011;7633;60.024;18.770;2022-12-07T11:23:04;2.93;;;1.00;;
15067;SDS011;7633;60.024;18.770;2022-12-07T11:25:36;1.00;;;0.83;;
15067;SDS011;7633;60.024;18.770;2022-12-07T11:28:09;0.83;;;0.50;;
15067;SDS011;7633;60.024;18.770;2022-12-07T11:30:54;1.87;;;0.80;;
15067;SDS011;7633;60.024;18.770;2022-12-07T11:39:07;0.90;;;0.60;;
15067;SDS011;7633;60.024;18.770;2022-12-07T11:41:25;0.60;;;0.43;;
15067;SDS011;7633;60.024;18.770;2022-12-07T11:51:51;1.27;;;0.60;;
15067;SDS011;7633;60.024;18.770;2022-12-07T11:54:23;1.67;;;0.40;;
15067;SDS011;7633;60.024;18.770;2022-12-07T11:56:50;3.10;;;0.77;;
15067;SDS011;7633;60.024;18.770;2022-12-07T11:59:28;1.30;;;0.70;;
15067;SDS011;7633;60.024;18.770;2022-12-07T12:07:15;2.63;;;0.80;;
15067;SDS011;7633;60.024;18.770;2022-12-07T12:10:05;0.60;;;0.40;;
15067;SDS011;7633;60.024;18.770;2022-12-07T12:12:47;1.23;;;0.60;;
15067;SDS011;7633;60.024;18.770;2022-12-07T12:15:28;0.90;;;0.60;;
15067;SDS011;7633;60.024;18.770;2022-12-07T12:20:40;1.40;;;0.70;;
15067;SDS011;7633;60.024;18.770;2022-12-07T12:25:35;1.27;;;0.70;;
15067;SDS011;7633;60.024;18.770;2022-12-07T12:28:03;1.83;;;0.70;;
15067;SDS011;7633;60.024;18.770;2022-12-07T12:30:30;0.93;;;0.73;;
15067;SDS011;7633;60.024;18.770;2022-12-07T12:35:32;1.57;;;0.57;;
15067;SDS011;7633;60.024;18.770;2022-12-07T12:40:43;1.00;;;0.70;;
15067;SDS011;7633;60.024;18.770;2022-12-07T12:46:33;2.13;;;0.80;;
15067;SDS011;7633;60.024;18.770;2022-12-07T12:48:38;2.37;;;0.90;;
15067;SDS011;7633;60.024;18.770;2022-12-07T12:53:48;1.00;;;0.90;;
15067;SDS011;7633;60.024;18.770;2022-12-07T12:56:21;1.40;;;0.90;;
15067;SDS011;7633;60.024;18.770;2022-12-07T12:58:50;1.20;;;1.07;;
15067;SDS011;7633;60.024;18.770;2022-12-07T13:04:00;1.63;;;1.00;;
15067;SDS011;7633;60.024;18.770;2022-12-07T13:08:53;2.37;;;1.20;;
15067;SDS011;7633;60.024;18.770;2022-12-07T13:11:32;2.43;;;1.10;;
15067;SDS011;7633;60.024;18.770;2022-12-07T13:16:43;2.07;;;0.90;;
15067;SDS011;7633;60.024;18.770;2022-12-07T13:19:52;1.73;;;0.60;;
15067;SDS011;7633;60.024;18.770;2022-12-07T13:22:54;2.20;;;0.83;;
15067;SDS011;7633;60.024;18.770;2022-12-07T13:25:27;1.67;;;1.13;;
15067;SDS011;7633;60.024;18.770;2022-12-07T13:28:00;0.70;;;0.40;;
15067;SDS011;7633;60.024;18.770;2022-12-07T13:30:26;1.13;;;0.70;;
15067;SDS011;7633;60.024;18.770;2022-12-07T13:32:56;2.00;;;0.77;;
15067;SDS011;7633;60.024;18.770;2022-12-07T13:35:27;0.80;;;0.80;;
15067;SDS011;7633;60.024;18.770;2022-12-07T13:37:52;1.97;;;1.00;;
15067;SDS011;7633;60.024;18.770;2022-12-07T13:40:18;1.17;;;0.90;;
15067;SDS011;7633;60.024;18.770;2022-12-07T13:42:44;1.47;;;0.70;;
15067;SDS011;7633;60.024;18.770;2022-12-07T13:48:26;1.30;;;0.77;;
15067;SDS011;7633;60.024;18.770;2022-12-07T13:50:53;1.50;;;1.10;;
15067;SDS011;7633;60.024;18.770;2022-12-07T13:53:19;1.47;;;0.70;;
15067;SDS011;7633;60.024;18.770;2022-12-07T13:55:45;2.87;;;1.00;;
15067;SDS011;7633;60.024;18.770;2022-12-07T13:58:11;1.30;;;0.63;;
15067;SDS011;7633;60.024;18.770;2022-12-07T14:00:37;1.33;;;0.50;;
15067;SDS011;7633;60.024;18.770;2022-12-07T14:05:38;0.77;;;0.60;;
15067;SDS011;7633;60.024;18.770;2022-12-07T14:10:39;1.83;;;0.80;;
15067;SDS011;7633;60.024;18.770;2022-12-07T14:15:50;1.20;;;0.70;;
15067;SDS011;7633;60.024;18.770;2022-12-07T14:23:37;1.93;;;1.10;;
15067;SDS011;7633;60.024;18.770;2022-12-07T14:26:13;1.30;;;0.60;;
15067;SDS011;7633;60.024;18.770;2022-12-07T14:28:39;0.97;;;0.80;;
15067;SDS011;7633;60.024;18.770;2022-12-07T14:31:12;2.27;;;0.77;;
15067;SDS011;7633;60.024;18.770;2022-12-07T14:33:38;4.00;;;1.07;;
15067;SDS011;7633;60.024;18.770;2022-12-07T14:36:04;2.90;;;0.83;;
15067;SDS011;7633;60.024;18.770;2022-12-07T14:38:30;1.60;;;0.90;;
15067;SDS011;7633;60.024;18.770;2022-12-07T14:40:55;1.23;;;0.70;;
15067;SDS011;7633;60.024;18.770;2022-12-07T14:43:41;4.87;;;0.93;;
15067;SDS011;7633;60.024;18.770;2022-12-07T14:46:06;3.10;;;0.83;;
15067;SDS011;7633;60.024;18.770;2022-12-07T14:48:32;2.00;;;0.80;;
15067;SDS011;7633;60.024;18.770;2022-12-07T14:50:58;0.80;;;0.80;;
15067;SDS011;7633;60.024;18.770;2022-12-07T14:53:25;1.63;;;0.80;;
15067;SDS011;7633;60.024;18.770;2022-12-07T14:55:52;1.20;;;0.70;;
15067;SDS011;7633;60.024;18.770;2022-12-07T14:58:17;1.70;;;1.00;;
15067;SDS011;7633;60.024;18.770;2022-12-07T15:00:43;4.73;;;1.10;;
15067;SDS011;7633;60.024;18.770;2022-12-07T15:03:09;1.67;;;0.80;;
15067;SDS011;7633;60.024;18.770;2022-12-07T15:05:34;5.17;;;1.40;;
15067;SDS011;7633;60.024;18.770;2022-12-07T15:08:00;1.63;;;1.20;;
15067;SDS011;7633;60.024;18.770;2022-12-07T15:10:26;2.90;;;1.70;;
15067;SDS011;7633;60.024;18.770;2022-12-07T15:12:55;3.43;;;1.70;;
15067;SDS011;7633;60.024;18.770;2022-12-07T15:15:40;0.97;;;0.90;;
15067;SDS011;7633;60.024;18.770;2022-12-07T15:18:06;3.63;;;1.33;;
15067;SDS011;7633;60.024;18.770;2022-12-07T15:20:31;2.37;;;1.53;;
15067;SDS011;7633;60.024;18.770;2022-12-07T15:22:57;1.97;;;1.37;;
15067;SDS011;7633;60.024;18.770;2022-12-07T15:25:22;1.67;;;1.10;;
15067;SDS011;7633;60.024;18.770;2022-12-07T15:27:47;2.37;;;1.63;;
15067;SDS011;7633;60.024;18.770;2022-12-07T15:30:13;2.33;;;1.40;;
15067;SDS011;7633;60.024;18.770;2022-12-07T15:32:38;2.60;;;1.30;;
15067;SDS011;7633;60.024;18.770;2022-12-07T15:35:04;1.97;;;1.30;;
15067;SDS011;7633;60.024;18.770;2022-12-07T15:37:29;2.10;;;1.00;;
15067;SDS011;7633;60.024;18.770;2022-12-07T15:39:55;2.17;;;1.10;;
15067;SDS011;7633;60.024;18.770;2022-12-07T15:42:20;1.97;;;1.40;;
15067;SDS011;7633;60.024;18.770;2022-12-07T15:44:46;1.10;;;0.70;;
15067;SDS011;7633;60.024;18.770;2022-12-07T15:47:35;1.10;;;0.90;;
15067;SDS011;7633;60.024;18.770;2022-12-07T15:50:02;0.77;;;0.60;;
15067;SDS011;7633;60.024;18.770;2022-12-07T15:52:29;1.77;;;0.70;;
15067;SDS011;7633;60.024;18.770;2022-12-07T15:54:54;1.50;;;0.90;;
15067;SDS011;7633;60.024;18.770;2022-12-07T15:57:20;1.00;;;0.77;;
15067;SDS011;7633;60.024;18.770;2022-12-07T15:59:45;1.43;;;0.97;;
15067;SDS011;7633;60.024;18.770;2022-12-07T16:02:10;0.90;;;0.67;;
15067;SDS011;7633;60.024;18.770;2022-12-07T16:04:36;1.60;;;0.73;;
15067;SDS011;7633;60.024;18.770;2022-12-07T16:07:01;1.60;;;0.87;;
15067;SDS011;7633;60.024;18.770;2022-12-07T16:09:27;0.70;;;0.43;;
15067;SDS011;7633;60.024;18.770;2022-12-07T16:11:53;2.53;;;0.90;;
15067;SDS011;7633;60.024;18.770;2022-12-07T16:14:18;1.20;;;1.00;;
15067;SDS011;7633;60.024;18.770;2022-12-07T16:16:44;1.57;;;0.73;;
15067;SDS011;7633;60.024;18.770;2022-12-07T16:19:10;2.20;;;1.10;;
15067;SDS011;7633;60.024;18.770;2022-12-07T16:21:36;1.57;;;1.07;;
15067;SDS011;7633;60.024;18.770;2022-12-07T16:24:02;1.97;;;1.27;;
15067;SDS011;7633;60.024;18.770;2022-12-07T16:26:27;3.20;;;1.13;;
15067;SDS011;7633;60.024;18.770;2022-12-07T16:28:53;1.40;;;0.90;;
15067;SDS011;7633;60.024;18.770;2022-12-07T16:31:20;1.73;;;0.93;;
15067;SDS011;7633;60.024;18.770;2022-12-07T16:33:46;1.70;;;1.00;;
15067;SDS011;7633;60.024;18.770;2022-12-07T16:36:12;1.63;;;1.13;;
15067;SDS011;7633;60.024;18.770;2022-12-07T16:38:38;1.03;;;0.67;;
15067;SDS011;7633;60.024;18.770;2022-12-07T16:41:05;1.40;;;0.90;;
15067;SDS011;7633;60.024;18.770;2022-12-07T16:43:31;2.30;;;1.20;;